createdAt,value
2018-09-29T00:08:32.931Z,12.84
2018-09-29T00:19:35.112Z,12.82
2018-09-29T00:30:36.189Z,12.69
2018-09-29T00:41:38.001Z,12.60
2018-09-29T00:52:40.356Z,12.59
2018-09-29T01:03:42.544Z,12.46
2018-09-29T01:14:44.528Z,12.12
2018-09-29T01:25:45.638Z,12.00
2018-09-29T01:36:46.828Z,11.94
2018-09-29T01:47:49.280Z,12.08
2018-09-29T01:58:48.026Z,12.02
2018-09-29T02:09:46.736Z,12.08
2018-09-29T02:20:49.155Z,12.24
2018-09-29T02:31:49.075Z,12.26
2018-09-29T02:42:51.043Z,12.27
2018-09-29T02:53:53.578Z,12.13
2018-09-29T03:04:55.094Z,12.36
2018-09-29T03:15:57.259Z,12.37
2018-09-29T03:26:59.649Z,12.30
2018-09-29T03:38:02.026Z,12.49
2018-09-29T03:49:04.246Z,12.00
2018-09-29T04:00:06.310Z,11.72
2018-09-29T04:11:06.743Z,11.36
2018-09-29T04:22:06.581Z,11.10
2018-09-29T04:33:06.104Z,11.06
2018-09-29T04:44:07.592Z,11.34
2018-09-29T04:55:10.674Z,11.46
2018-09-29T05:06:13.214Z,11.65
2018-09-29T05:17:15.315Z,11.41
2018-09-29T05:28:16.317Z,11.11
2018-09-29T05:39:18.166Z,11.13
2018-09-29T05:50:20.184Z,11.57
2018-09-29T06:01:23.467Z,12.00
2018-09-29T06:12:26.558Z,12.36
2018-09-29T06:23:28.121Z,12.51
2018-09-29T06:34:30.722Z,12.66
2018-09-29T06:45:32.921Z,13.17
2018-09-29T06:56:31.465Z,13.68
2018-09-29T07:07:23.587Z,13.59
2018-09-29T07:18:25.198Z,13.95
2018-09-29T07:29:25.557Z,13.95
2018-09-29T07:40:22.934Z,14.39
2018-09-29T07:51:12.580Z,14.27
2018-09-29T08:02:12.708Z,14.34
2018-09-29T08:13:09.022Z,15.10
2018-09-29T08:24:07.132Z,15.30
2018-09-29T08:35:09.773Z,15.38
2018-09-29T08:46:04.909Z,14.87
2018-09-29T08:57:03.683Z,14.91
2018-09-29T09:08:01.085Z,15.02
2018-09-29T09:19:03.755Z,15.23
2018-09-29T09:30:06.609Z,16.15
2018-09-29T09:41:04.851Z,16.10
2018-09-29T09:52:05.907Z,16.44
2018-09-29T10:03:03.437Z,16.57
2018-09-29T10:14:03.969Z,17.08
2018-09-29T10:25:05.119Z,17.33
2018-09-29T10:36:04.177Z,16.93
2018-09-29T10:46:47.619Z,18.07
2018-09-29T10:57:49.234Z,19.65
2018-09-29T11:08:36.195Z,19.91
2018-09-29T11:19:24.020Z,18.39
2018-09-29T11:29:57.808Z,18.28
2018-09-29T11:40:38.686Z,19.23
2018-09-29T11:51:19.707Z,18.59
2018-09-29T12:02:19.931Z,19.76
2018-09-29T12:13:14.061Z,19.78
2018-09-29T12:24:13.554Z,19.08
2018-09-29T12:35:15.849Z,20.00
2018-09-29T12:46:14.900Z,20.59
2018-09-29T12:57:14.810Z,19.97
2018-09-29T13:08:14.435Z,17.88
2018-09-29T13:18:45.666Z,19.27
2018-09-29T13:29:40.765Z,18.98
2018-09-29T13:40:35.191Z,20.82
2018-09-29T13:51:39.500Z,20.62
2018-09-29T14:02:37.991Z,18.90
2018-09-29T14:13:32.723Z,17.60
2018-09-29T14:24:31.791Z,17.39
2018-09-29T14:35:32.394Z,17.11
2018-09-29T14:46:33.275Z,16.70
2018-09-29T14:57:33.871Z,16.55
2018-09-29T15:08:35.204Z,16.06
2018-09-29T15:19:35.528Z,16.06
2018-09-29T15:30:36.191Z,15.70
2018-09-29T15:41:35.154Z,15.15
2018-09-29T15:52:35.179Z,15.08
2018-09-29T16:03:35.366Z,14.65
2018-09-29T16:14:34.771Z,14.01
2018-09-29T16:25:35.433Z,13.27
2018-09-29T16:36:35.609Z,12.91
2018-09-29T16:47:35.009Z,12.28
2018-09-29T16:58:35.008Z,11.69
2018-09-29T17:09:34.988Z,11.06
2018-09-29T17:20:34.929Z,10.63
2018-09-29T17:31:35.479Z,10.43
2018-09-29T17:42:35.561Z,10.37
2018-09-29T17:53:36.356Z,10.11
2018-09-29T18:04:36.422Z,9.82
2018-09-29T18:15:37.103Z,9.68
2018-09-29T18:26:37.765Z,9.31
2018-09-29T18:37:37.962Z,9.13
2018-09-29T18:48:39.507Z,8.93
2018-09-29T18:59:37.046Z,8.69
2018-09-29T19:10:37.283Z,8.52
2018-09-29T19:21:38.350Z,8.39
2018-09-29T19:32:32.366Z,8.04
2018-09-29T19:43:18.714Z,7.82
2018-09-29T19:54:18.563Z,7.75
2018-09-29T20:05:19.120Z,7.47
2018-09-29T20:16:20.196Z,7.52
2018-09-29T20:27:21.352Z,7.27
2018-09-29T20:38:22.398Z,7.05
2018-09-29T20:49:21.772Z,6.65
2018-09-29T21:00:21.294Z,6.62
2018-09-29T21:11:18.916Z,6.75
2018-09-29T21:22:18.261Z,6.59
2018-09-29T21:33:18.365Z,6.32
2018-09-29T21:44:13.564Z,6.27
2018-09-29T21:55:13.684Z,6.03
2018-09-29T22:06:15.101Z,5.97
2018-09-29T22:17:16.695Z,5.90
2018-09-29T22:28:18.360Z,5.83
2018-09-29T22:39:19.926Z,5.53
2018-09-29T22:50:21.539Z,5.29
2018-09-29T23:01:23.082Z,5.35
2018-09-29T23:12:24.939Z,5.54
2018-09-29T23:23:27.502Z,5.34
2018-09-29T23:34:27.843Z,5.26
2018-09-29T23:45:28.230Z,5.08
2018-09-29T23:56:29.857Z,5.02
